createdAt,value
2022-07-25T00:03:01.533Z,11.57
2022-07-25T00:06:13.517Z,11.57
2022-07-25T00:09:22.937Z,12.18
2022-07-25T00:12:30.678Z,12.82
2022-07-25T00:15:35.984Z,14.35
2022-07-25T00:18:41.254Z,11.88
2022-07-25T00:21:46.898Z,15.00
2022-07-25T00:24:52.295Z,16.23
2022-07-25T00:28:00.575Z,14.27
2022-07-25T00:31:05.680Z,10.88
2022-07-25T00:34:11.034Z,11.95
2022-07-25T00:37:16.741Z,11.80
2022-07-25T00:40:21.981Z,13.63
2022-07-25T00:43:29.896Z,12.77
2022-07-25T00:46:35.377Z,12.55
2022-07-25T00:49:40.641Z,10.27
2022-07-25T00:52:45.839Z,10.93
2022-07-25T00:55:51.267Z,14.93
2022-07-25T00:58:59.094Z,11.98
2022-07-25T01:02:04.396Z,14.82
2022-07-25T01:05:10.991Z,12.13
2022-07-25T01:08:16.151Z,16.27
2022-07-25T01:11:21.314Z,22.02
2022-07-25T01:14:29.076Z,10.95
2022-07-25T01:17:34.261Z,17.20
2022-07-25T01:20:42.241Z,12.15
2022-07-25T01:23:47.349Z,13.40
2022-07-25T01:26:52.780Z,14.68
2022-07-25T01:29:58.137Z,12.15
2022-07-25T01:33:06.983Z,17.23
2022-07-25T01:36:15.524Z,13.30
2022-07-25T01:39:20.981Z,14.23
2022-07-25T01:42:26.001Z,12.02
2022-07-25T01:45:31.391Z,13.55
2022-07-25T01:48:36.620Z,12.07
2022-07-25T01:51:44.372Z,14.10
2022-07-25T01:54:49.477Z,12.60
2022-07-25T01:57:54.805Z,15.90
2022-07-25T02:00:59.869Z,12.75
2022-07-25T02:04:05.534Z,14.60
2022-07-25T02:07:13.550Z,17.45
2022-07-25T02:10:18.720Z,15.27
2022-07-25T02:13:24.348Z,15.95
2022-07-25T02:16:29.620Z,12.80
2022-07-25T02:19:34.889Z,13.35
2022-07-25T02:22:42.814Z,11.95
2022-07-25T02:25:48.004Z,19.55
2022-07-25T02:28:53.566Z,14.50
2022-07-25T02:31:58.863Z,16.98
2022-07-25T02:35:04.255Z,13.85
2022-07-25T02:38:22.561Z,13.40
2022-07-25T02:41:27.968Z,16.13
2022-07-25T02:44:33.353Z,16.52
2022-07-25T02:47:38.695Z,13.30
2022-07-25T02:50:43.934Z,17.75
2022-07-25T02:53:57.785Z,14.02
2022-07-25T02:57:04.045Z,15.48
2022-07-25T03:00:10.268Z,13.95
2022-07-25T03:03:15.562Z,14.82
2022-07-25T03:06:21.330Z,17.08
2022-07-25T03:09:29.145Z,14.48
2022-07-25T03:12:34.820Z,14.32
2022-07-25T03:15:39.925Z,14.52
2022-07-25T03:18:45.437Z,14.73
2022-07-25T03:21:50.866Z,16.35
2022-07-25T03:24:58.685Z,11.93
2022-07-25T03:28:03.915Z,13.77
2022-07-25T03:31:09.302Z,11.45
2022-07-25T03:34:14.388Z,14.02
2022-07-25T03:37:19.799Z,12.57
2022-07-25T03:40:28.070Z,12.25
2022-07-25T03:43:33.755Z,13.82
2022-07-25T03:46:39.129Z,12.93
2022-07-25T03:49:44.151Z,11.40
2022-07-25T03:52:49.723Z,15.23
2022-07-25T03:55:57.371Z,11.30
2022-07-25T03:59:02.562Z,12.95
2022-07-25T04:02:07.939Z,12.80
2022-07-25T04:05:13.431Z,12.15
2022-07-25T04:08:18.474Z,14.45
2022-07-25T04:11:26.507Z,12.20
2022-07-25T04:14:31.584Z,13.15
2022-07-25T04:17:39.536Z,13.90
2022-07-25T04:23:50.559Z,12.35
2022-07-25T04:26:58.276Z,13.93
2022-07-25T04:30:04.109Z,13.20
2022-07-25T04:33:10.693Z,13.45
2022-07-25T04:36:15.916Z,15.52
2022-07-25T04:39:20.960Z,15.95
2022-07-25T04:42:28.773Z,11.38
2022-07-25T04:45:35.032Z,13.57
2022-07-25T04:48:40.704Z,19.10
2022-07-25T04:51:47.326Z,14.35
2022-07-25T04:54:52.528Z,12.80
2022-07-25T04:58:00.356Z,14.70
2022-07-25T05:01:05.686Z,10.60
2022-07-25T05:04:10.906Z,16.20
2022-07-25T05:07:16.243Z,16.80
2022-07-25T05:10:21.368Z,16.75
2022-07-25T05:13:29.348Z,16.20
2022-07-25T05:16:34.706Z,9.88
2022-07-25T05:19:40.136Z,12.45
2022-07-25T05:22:45.642Z,11.27
2022-07-25T05:25:51.408Z,11.45
2022-07-25T05:28:59.085Z,12.13
2022-07-25T05:32:04.838Z,12.90
2022-07-25T05:35:11.135Z,11.27
2022-07-25T05:38:16.141Z,10.77
2022-07-25T05:41:21.315Z,20.10
2022-07-25T05:44:29.672Z,12.40
2022-07-25T05:47:35.054Z,17.15
2022-07-25T05:50:40.292Z,11.63
2022-07-25T05:53:45.864Z,13.20
2022-07-25T05:56:50.827Z,13.27
2022-07-25T06:00:00.176Z,15.13
2022-07-25T06:03:05.565Z,12.35
2022-07-25T06:06:12.976Z,10.20
2022-07-25T06:09:18.597Z,13.73
2022-07-25T06:12:25.068Z,10.38
2022-07-25T06:15:33.288Z,11.00
2022-07-25T06:18:39.069Z,12.02
2022-07-25T06:21:44.407Z,14.25
2022-07-25T06:24:49.433Z,12.90
2022-07-25T06:27:54.867Z,14.05
2022-07-25T06:31:02.671Z,9.27
2022-07-25T06:34:08.384Z,15.13
2022-07-25T06:37:13.758Z,13.02
2022-07-25T06:40:19.195Z,8.07
2022-07-25T06:43:24.623Z,7.78
2022-07-25T06:46:33.274Z,9.80
2022-07-25T06:49:39.034Z,7.40
2022-07-25T06:52:44.533Z,8.20
2022-07-25T06:55:49.728Z,10.10
2022-07-25T06:58:55.155Z,8.10
2022-07-25T07:02:03.065Z,9.77
2022-07-25T07:08:13.569Z,7.22
2022-07-25T07:11:18.756Z,7.80
2022-07-25T07:14:23.743Z,7.72
2022-07-25T07:17:31.569Z,7.10
2022-07-25T07:20:37.399Z,9.30
2022-07-25T07:23:43.220Z,18.48
2022-07-25T07:26:49.427Z,9.38
2022-07-25T07:29:54.600Z,9.95
2022-07-25T07:33:02.975Z,8.88
2022-07-25T07:36:08.424Z,8.73
2022-07-25T07:39:13.929Z,7.90
2022-07-25T07:42:19.277Z,10.23
2022-07-25T07:45:25.756Z,8.93
2022-07-25T07:48:34.204Z,7.50
2022-07-25T07:51:39.588Z,11.82
2022-07-25T07:54:59.387Z,8.02
2022-07-25T07:58:05.037Z,7.45
2022-07-25T08:01:10.195Z,8.13
2022-07-25T08:04:18.696Z,9.10
2022-07-25T08:07:24.042Z,6.70
2022-07-25T08:10:30.495Z,8.18
2022-07-25T08:13:38.512Z,7.72
2022-07-25T08:16:43.508Z,6.50
2022-07-25T08:19:51.237Z,6.13
2022-07-25T08:26:02.684Z,5.38
2022-07-25T08:29:28.052Z,5.47
2022-07-25T08:32:33.117Z,5.30
2022-07-25T08:35:41.220Z,7.32
2022-07-25T08:38:46.391Z,6.53
2022-07-25T08:41:52.160Z,4.80
2022-07-25T08:45:01.656Z,6.47
2022-07-25T08:48:08.985Z,15.95
2022-07-25T08:51:17.296Z,4.75
2022-07-25T08:54:22.919Z,6.03
2022-07-25T08:57:28.139Z,7.78
2022-07-25T09:00:33.714Z,8.05
2022-07-25T09:03:40.556Z,8.55
2022-07-25T09:06:55.501Z,6.65
2022-07-25T09:10:00.630Z,7.18
2022-07-25T09:13:08.073Z,5.78
2022-07-25T09:16:13.672Z,5.88
2022-07-25T09:19:20.691Z,7.22
2022-07-25T09:22:30.690Z,7.47
2022-07-25T09:25:36.329Z,7.10
2022-07-25T09:28:43.929Z,9.43
2022-07-25T09:31:49.239Z,6.55
2022-07-25T09:34:54.270Z,8.02
2022-07-25T09:38:12.296Z,9.02
2022-07-25T09:41:17.480Z,6.70
2022-07-25T09:44:23.469Z,7.22
2022-07-25T09:47:28.492Z,6.97
2022-07-25T09:50:35.022Z,5.90
2022-07-25T09:53:45.821Z,5.40
2022-07-25T09:56:50.959Z,6.75
2022-07-25T09:59:56.269Z,6.78
2022-07-25T10:03:16.423Z,6.40
2022-07-25T10:06:24.546Z,6.60
2022-07-25T10:12:38.482Z,6.00
2022-07-25T10:15:45.026Z,9.10
2022-07-25T10:18:51.386Z,6.43
2022-07-25T10:21:58.287Z,6.85
2022-07-25T10:25:10.876Z,7.75
2022-07-25T10:28:21.084Z,6.85
2022-07-25T10:31:28.138Z,7.03
2022-07-25T10:34:33.866Z,7.53
2022-07-25T10:37:39.711Z,6.43
2022-07-25T10:40:46.769Z,7.40
2022-07-25T10:43:54.910Z,7.25
2022-07-25T10:47:08.237Z,7.13
2022-07-25T10:50:25.614Z,7.05
2022-07-25T10:53:41.351Z,6.53
2022-07-25T10:56:56.375Z,6.82
2022-07-25T11:00:11.536Z,7.35
2022-07-25T11:03:18.541Z,9.48
2022-07-25T11:06:32.943Z,6.97
2022-07-25T11:09:37.959Z,6.53
2022-07-25T11:12:42.963Z,7.13
2022-07-25T11:15:51.086Z,6.65
2022-07-25T11:18:57.301Z,6.43
2022-07-25T11:22:04.645Z,7.50
2022-07-25T11:25:14.652Z,6.70
2022-07-25T11:28:19.615Z,7.03
2022-07-25T11:31:27.984Z,6.18
2022-07-25T11:34:34.042Z,6.13
2022-07-25T11:37:41.713Z,7.18
2022-07-25T11:40:47.190Z,6.03
2022-07-25T11:43:52.745Z,5.68
2022-07-25T11:47:00.751Z,5.60
2022-07-25T11:50:07.814Z,7.78
2022-07-25T11:53:15.180Z,5.60
2022-07-25T11:59:47.475Z,5.80
2022-07-25T12:02:55.548Z,6.45
2022-07-25T12:06:01.108Z,6.10
2022-07-25T12:09:18.318Z,7.70
2022-07-25T12:12:24.190Z,6.03
2022-07-25T12:15:30.248Z,12.85
2022-07-25T12:18:38.204Z,5.93
2022-07-25T12:21:43.528Z,5.90
2022-07-25T12:24:48.784Z,5.05
2022-07-25T12:27:54.129Z,7.50
2022-07-25T12:30:59.515Z,5.82
2022-07-25T12:34:07.305Z,4.45
2022-07-25T12:37:13.002Z,5.43
2022-07-25T12:40:18.643Z,6.13
2022-07-25T12:43:30.191Z,10.77
2022-07-25T12:46:36.457Z,5.10
2022-07-25T12:49:44.336Z,8.00
2022-07-25T12:52:50.368Z,13.85
2022-07-25T12:55:55.457Z,5.28
2022-07-25T12:59:00.639Z,19.45
2022-07-25T13:02:06.414Z,7.10
2022-07-25T13:05:14.098Z,6.00
2022-07-25T13:08:19.090Z,8.48
2022-07-25T13:11:24.058Z,5.63
2022-07-25T13:14:29.366Z,5.22
2022-07-25T13:17:35.127Z,6.55
2022-07-25T13:20:42.784Z,5.72
2022-07-25T13:23:47.951Z,5.07
2022-07-25T13:26:53.084Z,5.45
2022-07-25T13:29:58.217Z,4.95
2022-07-25T13:33:04.020Z,6.55
2022-07-25T13:36:12.369Z,5.85
2022-07-25T13:39:18.103Z,5.85
2022-07-25T13:42:23.061Z,4.40
2022-07-25T13:45:28.294Z,4.65
2022-07-25T13:48:33.329Z,6.10
2022-07-25T13:51:41.266Z,5.00
2022-07-25T13:54:46.457Z,4.55
2022-07-25T13:57:51.611Z,5.65
2022-07-25T14:00:57.114Z,5.20
2022-07-25T14:04:02.368Z,4.72
2022-07-25T14:07:10.463Z,4.78
2022-07-25T14:10:15.549Z,6.63
2022-07-25T14:13:20.673Z,4.63
2022-07-25T14:16:26.029Z,4.78
2022-07-25T14:19:31.342Z,5.38
2022-07-25T14:22:39.850Z,4.72
2022-07-25T14:25:45.461Z,4.47
2022-07-25T14:28:50.526Z,4.75
2022-07-25T14:31:56.149Z,4.85
2022-07-25T14:35:02.206Z,4.88
2022-07-25T14:38:11.603Z,5.55
2022-07-25T14:41:17.429Z,4.43
2022-07-25T14:44:22.840Z,6.50
2022-07-25T14:47:28.008Z,4.53
2022-07-25T14:50:33.062Z,4.57
2022-07-25T14:53:41.059Z,4.75
2022-07-25T14:56:46.674Z,6.63
2022-07-25T14:59:52.045Z,7.55
2022-07-25T15:02:57.231Z,5.07
2022-07-25T15:06:02.371Z,5.75
2022-07-25T15:09:10.570Z,5.30
2022-07-25T15:12:17.232Z,7.20
2022-07-25T15:15:22.517Z,5.03
2022-07-25T15:18:27.893Z,4.88
2022-07-25T15:21:32.987Z,5.35
2022-07-25T15:25:16.774Z,5.90
2022-07-25T15:28:08.757Z,4.70
2022-07-25T15:31:14.100Z,5.18
2022-07-25T15:34:19.176Z,6.38
2022-07-25T15:37:24.641Z,6.68
2022-07-25T15:40:32.660Z,4.50
2022-07-25T15:43:37.928Z,5.57
2022-07-25T15:46:43.479Z,6.28
2022-07-25T15:49:48.678Z,5.88
2022-07-25T15:52:53.925Z,7.18
2022-07-25T15:56:01.735Z,6.25
2022-07-25T15:59:07.006Z,4.88
2022-07-25T16:02:13.413Z,5.88
2022-07-25T16:05:18.825Z,7.68
2022-07-25T16:08:24.330Z,6.57
2022-07-25T16:11:32.357Z,8.65
2022-07-25T16:14:37.445Z,4.78
2022-07-25T16:17:43.043Z,5.25
2022-07-25T16:20:48.170Z,5.35
2022-07-25T16:23:53.458Z,8.20
2022-07-25T16:27:01.405Z,6.35
2022-07-25T16:30:06.796Z,7.65
2022-07-25T16:33:12.106Z,19.77
2022-07-25T16:36:17.561Z,11.18
2022-07-25T16:39:23.985Z,6.20
2022-07-25T16:42:32.022Z,9.70
2022-07-25T16:48:41.847Z,17.63
2022-07-25T16:51:47.892Z,22.80
2022-07-25T16:54:53.087Z,14.48
2022-07-25T16:58:01.227Z,6.40
2022-07-25T17:01:07.095Z,6.32
2022-07-25T17:04:12.268Z,4.38
2022-07-25T17:07:17.489Z,4.68
2022-07-25T17:10:23.239Z,3.70
2022-07-25T17:13:30.865Z,4.15
2022-07-25T17:16:36.165Z,3.55
2022-07-25T17:19:41.868Z,6.03
2022-07-25T17:22:47.076Z,4.90
2022-07-25T17:25:53.725Z,9.25
2022-07-25T17:29:01.708Z,7.15
2022-07-25T17:32:08.340Z,9.48
2022-07-25T17:35:13.660Z,9.20
2022-07-25T17:38:23.796Z,8.27
2022-07-25T17:41:31.327Z,11.82
2022-07-25T17:44:39.279Z,8.23
2022-07-25T17:47:45.155Z,8.93
2022-07-25T17:50:50.319Z,8.70
2022-07-25T17:53:55.325Z,10.07
2022-07-25T17:57:01.150Z,8.63
2022-07-25T18:00:09.813Z,7.88
2022-07-25T18:03:19.461Z,10.50
2022-07-25T18:06:29.518Z,17.25
2022-07-25T18:09:35.130Z,10.70
2022-07-25T18:12:40.471Z,10.55
2022-07-25T18:15:48.667Z,9.90
2022-07-25T18:21:58.687Z,13.25
2022-07-25T18:25:03.890Z,14.82
2022-07-25T18:28:09.548Z,14.30
2022-07-25T18:31:17.760Z,15.38
2022-07-25T18:34:23.306Z,11.98
2022-07-25T18:37:28.772Z,14.75
2022-07-25T18:40:34.490Z,8.77
2022-07-25T18:43:39.755Z,24.10
2022-07-25T18:46:49.997Z,13.43
2022-07-25T18:49:56.432Z,9.10
2022-07-25T18:53:01.612Z,12.40
2022-07-25T18:56:08.667Z,11.60
2022-07-25T18:59:14.180Z,12.20
2022-07-25T19:02:22.076Z,15.45
2022-07-25T19:08:32.644Z,8.10
2022-07-25T19:11:41.964Z,10.20
2022-07-25T19:14:47.688Z,9.23
2022-07-25T19:17:55.327Z,10.45
2022-07-25T19:21:00.800Z,8.70
2022-07-25T19:24:06.510Z,12.38
2022-07-25T19:27:12.710Z,11.45
2022-07-25T19:30:18.823Z,11.30
2022-07-25T19:33:34.704Z,12.63
2022-07-25T19:36:43.821Z,17.20
2022-07-25T19:39:49.451Z,12.38
2022-07-25T19:42:54.611Z,8.50
2022-07-25T19:46:00.161Z,10.38
2022-07-25T19:49:08.412Z,10.98
2022-07-25T19:52:13.948Z,10.32
2022-07-25T19:55:19.144Z,12.40
2022-07-25T19:58:24.549Z,12.40
2022-07-25T20:01:30.961Z,13.27
2022-07-25T20:04:38.994Z,9.80
2022-07-25T20:07:44.235Z,15.63
2022-07-25T20:10:50.306Z,15.38
2022-07-25T20:13:55.616Z,17.20
2022-07-25T20:17:01.229Z,12.27
2022-07-25T20:20:10.093Z,9.35
2022-07-25T20:23:15.756Z,10.27
2022-07-25T20:26:21.107Z,10.55
2022-07-25T20:29:26.085Z,15.27
2022-07-25T20:32:31.203Z,9.65
2022-07-25T20:35:38.929Z,9.63
2022-07-25T20:38:44.158Z,8.90
2022-07-25T20:41:49.644Z,13.88
2022-07-25T20:44:54.843Z,10.45
2022-07-25T20:48:00.085Z,14.82
2022-07-25T20:51:07.786Z,11.38
2022-07-25T20:54:14.753Z,17.70
2022-07-25T20:57:19.975Z,11.10
2022-07-25T21:00:27.721Z,11.90
2022-07-25T21:03:33.386Z,10.82
2022-07-25T21:06:41.179Z,14.20
2022-07-25T21:09:50.961Z,10.90
2022-07-25T21:12:57.001Z,10.43
2022-07-25T21:16:02.563Z,12.43
2022-07-25T21:19:08.203Z,12.90
2022-07-25T21:22:16.208Z,14.38
2022-07-25T21:25:21.240Z,15.98
2022-07-25T21:28:26.555Z,9.60
2022-07-25T21:31:31.783Z,13.10
2022-07-25T21:34:37.126Z,11.85
2022-07-25T21:37:44.899Z,15.95
2022-07-25T21:40:50.071Z,12.77
2022-07-25T21:43:55.598Z,11.02
2022-07-25T21:47:01.071Z,17.02
2022-07-25T21:50:23.188Z,15.20
2022-07-25T21:53:32.403Z,13.70
2022-07-25T21:56:37.769Z,13.93
2022-07-25T21:59:43.175Z,13.40
2022-07-25T22:02:49.067Z,14.63
2022-07-25T22:05:54.591Z,13.68
2022-07-25T22:09:02.475Z,12.50
2022-07-25T22:12:07.976Z,13.60
2022-07-25T22:15:14.156Z,13.88
2022-07-25T22:18:19.269Z,13.65
2022-07-25T22:21:24.508Z,11.52
2022-07-25T22:24:32.484Z,10.05
2022-07-25T22:27:37.727Z,12.48
2022-07-25T22:30:42.872Z,11.63
2022-07-25T22:33:47.921Z,15.77
2022-07-25T22:36:53.188Z,11.32
2022-07-25T22:40:01.599Z,11.50
2022-07-25T22:43:09.049Z,12.60
2022-07-25T22:46:14.379Z,13.20
2022-07-25T22:49:23.264Z,12.88
2022-07-25T22:52:28.532Z,14.68
2022-07-25T22:55:36.381Z,16.48
2022-07-25T22:58:41.642Z,18.25
2022-07-25T23:01:46.845Z,13.48
2022-07-25T23:04:52.099Z,13.50
2022-07-25T23:07:57.501Z,16.35
2022-07-25T23:11:06.330Z,13.02
2022-07-25T23:14:11.473Z,12.00
2022-07-25T23:17:24.775Z,12.75
2022-07-25T23:20:30.032Z,19.92
2022-07-25T23:23:35.493Z,12.18
2022-07-25T23:26:43.228Z,11.93
2022-07-25T23:29:48.666Z,16.42
2022-07-25T23:32:54.063Z,12.63
2022-07-25T23:35:59.340Z,11.10
2022-07-25T23:39:04.765Z,14.60
2022-07-25T23:42:12.730Z,12.13
2022-07-25T23:45:18.686Z,14.20
2022-07-25T23:48:24.956Z,15.13
2022-07-25T23:51:30.101Z,15.90
2022-07-25T23:54:35.750Z,21.67
2022-07-25T23:57:43.501Z,13.38
